Latest Coastal Weather Observations for Broome

IDW60701

Issued at 1:33 am WST Thursday 3 September 2026 (issued every 10 minutes, with the page automatically refreshed every 10 minutes)

About coastal observations | Map of coastal stations | Coastal observations for WA | Marine services | Other Formats
Station Details ID: 003003 Name: BROOME AIRPORT Lat: -17.95 Lon: 122.24 Height: 7.42 m
Data from the previous 72 hours. | See also: Recent months at Broome
Date/Time
WST
Wind Sea
Height
m
Swell Vis
km
Cloud Weather Temp
°C
Press
MSL
hPa
Rain since
9am
mm
Dir  Spd
kts
Gust
kts
Height
m
Period
s
Dir
03/01:30am NW 5 8 - - - - 10 Clear - 24.3 1015.2 0.0
03/01:00am NW 5 7 - - - - 10 - - 24.4 1015.5 0.0
03/12:30am NW 5 7 - - - - 10 - - 24.5 1015.8 0.0
03/12:00am NW 6 7 - - - - 10 Mostly cloudy - 24.8 1016.0 0.0
 
Date/Time
WST
Wind Sea
Height
m
Swell Vis
km
Cloud Weather Temp
°C
Press
MSL
hPa
Rain since
9am
mm
Dir  Spd
kts
Gust
kts
Height
m
Period
s
Dir
02/11:30pm NW 5 7 - - - - 10 - - 24.8 1016.2 0.0
02/11:00pm NW 6 8 - - - - 10 - - 24.9 1016.2 0.0
02/10:30pm NW 6 9 - - - - 10 - - 25.0 1016.3 0.0
02/10:00pm NW 7 12 - - - - 10 - - 25.2 1016.5 0.0
02/09:30pm NW 7 10 - - - - 10 - - 25.0 1016.5 0.0
02/09:00pm NW 7 11 - - - - 10 Mostly cloudy - 25.1 1016.6 0.0
02/08:30pm NW 7 12 - - - - 10 - - 25.0 1016.5 0.0
02/08:00pm NNW 8 12 - - - - 10 - - 25.1 1016.3 0.0
02/07:30pm NNW 9 16 - - - - 10 Mostly clear - 25.2 1015.9 0.0
02/07:26pm NNW 9 16 - - - - 10 Partly cloudy - 25.2 1015.8 0.0
02/07:04pm NNW 9 15 - - - - 10 Partly cloudy - 25.4 1015.7 0.0
02/07:00pm NNW 9 15 - - - - 10 Partly cloudy - 25.4 1015.7 0.0
02/06:30pm NNW 9 14 - - - - 10 - - 25.4 1015.2 0.0
02/06:00pm NNW 8 12 - - - - 10 - - 25.5 1014.9 0.0
02/05:30pm NW 9 12 - - - - 10 - - 26.0 1014.5 0.0
02/05:00pm NW 9 13 - - - - 10 - - 26.7 1014.1 0.0
02/04:30pm NW 12 16 - - - - 10 - - 27.2 1013.9 0.0
02/04:00pm NW 11 16 - - - - 10 - - 27.7 1013.8 0.0
02/03:30pm NW 11 16 - - - - 10 - - 27.8 1013.7 0.0
02/03:00pm WNW 10 15 - - - - 10 - - 28.6 1013.7 0.0
02/02:30pm W 12 16 - - - - 10 - - 28.6 1013.7 0.0
02/02:00pm W 12 17 - - - - 10 - - 28.8 1014.1 0.0
02/01:30pm W 11 17 - - - - 10 - - 29.5 1014.2 0.0
02/01:00pm WNW 11 16 - - - - 10 - - 29.4 1014.6 0.0
02/12:30pm WNW 10 14 - - - - 10 - - 29.7 1015.1 0.0
02/12:00pm NW 12 15 - - - - 10 - - 29.6 1015.7 0.0
02/11:30am NW 11 14 - - - - 10 - - 30.0 1016.3 0.0
02/11:00am NW 9 12 - - - - 10 - - 30.3 1016.9 0.0
02/10:30am NW 8 11 - - - - 10 - - 29.3 1017.3 0.0
02/10:00am NW 7 11 - - - - 10 - - 29.0 1017.7 0.0
02/09:30am NNE 4 7 - - - - 10 - - 28.8 1017.7 0.0
02/09:00am NE 6 7 - - - - 10 Mostly clear - 25.0 1017.7 0.2
02/08:56am NNE 6 7 - - - - 10 Mostly clear - 24.7 1017.8 0.2
02/08:30am NE 7 9 - - - - 10 Cloudy - 22.1 1017.8 0.2
02/08:22am NE 8 10 - - - - 10 Cloudy - 21.9 1017.7 0.2
02/08:08am NNE 9 12 - - - - 1 Cloudy - 21.3 1017.7 0.2
02/08:02am NE 8 11 - - - - 0.5 Cloudy - 21.3 1017.8 0.2
02/08:01am NE 9 11 - - - - 0.4 Cloudy - 21.4 1017.8 0.2
02/08:00am NE 9 13 - - - - 0.4 Cloudy - 21.2 1017.8 0.2
02/07:30am ENE 4 7 - - - - 0.1 Cloudy - 22.2 1017.2 0.2
02/07:00am CALM 0 4 - - - - 0.1 Cloudy - 21.3 1016.9 0.2
02/06:30am CALM 0 0 - - - - 0.1 Cloudy - 20.5 1016.7 0.2
02/06:00am NE 2 5 - - - - 0 Cloudy Showers 19.9 1016.3 0.0
02/05:51am CALM 0 0 - - - - 0.2 Cloudy - 19.8 1016.3 0.0
02/05:44am CALM 0 0 - - - - 0.3 Cloudy - 19.7 1016.1 0.0
02/05:30am CALM 0 0 - - - - 0.1 Cloudy - 19.9 1016.0 0.0
02/05:21am CALM 0 0 - - - - 0.1 Cloudy - 20.4 1016.0 0.0
02/05:00am CALM 0 0 - - - - 0.1 Cloudy - 20.9 1015.9 0.0
02/04:30am CALM 0 0 - - - - 0.1 Cloudy - 20.4 1015.6 0.0
02/04:00am CALM 0 0 - - - - 0.1 Cloudy - 19.8 1015.6 0.0
02/03:30am N 1 4 - - - - 0.1 Cloudy - 18.8 1015.5 0.0
02/03:07am CALM 0 0 - - - - 0.3 Cloudy - 19.0 1015.5 0.0
02/03:04am CALM 0 0 - - - - 0.2 Cloudy - 19.2 1015.5 0.0
02/03:03am CALM 0 0 - - - - 0.2 Cloudy - 19.3 1015.5 0.0
02/03:00am CALM 0 0 - - - - 0.2 Cloudy Showers 19.3 1015.5 0.0
02/02:30am CALM 0 0 - - - - 0.1 Cloudy - 19.4 1015.5 0.0
02/02:00am NNE 3 5 - - - - 0.1 Cloudy - 18.9 1015.6 0.0
02/01:51am NNE 4 5 - - - - 0.1 Cloudy - 19.0 1015.4 0.0
02/01:30am NE 4 4 - - - - 0.1 Cloudy - 18.6 1015.5 0.0
02/01:07am N 4 5 - - - - 0.8 Partly cloudy - 18.8 1015.6 0.0
02/01:00am N 4 6 - - - - 9 Partly cloudy - 19.2 1015.7 0.0
02/12:54am NNE 4 6 - - - - 2 Partly cloudy - 19.1 1015.7 0.0
02/12:48am NNE 3 4 - - - - 0.5 Partly cloudy - 18.9 1015.8 0.0
02/12:44am NE 2 4 - - - - 0.8 Partly cloudy - 19.1 1015.7 0.0
02/12:41am NE 1 4 - - - - 6 Partly cloudy - 19.0 1015.7 0.0
02/12:32am CALM 0 0 - - - - 10 - - 19.3 1015.8 0.0
02/12:30am CALM 0 0 - - - - 10 - - 19.0 1015.7 0.0
02/12:21am CALM 0 2 - - - - 1 - - 19.5 1015.8 0.0
02/12:13am NNW 2 4 - - - - 0.9 - - 19.5 1015.9 0.0
02/12:11am NNW 3 4 - - - - 4 - - 19.5 1015.9 0.0
02/12:00am NNE 3 4 - - - - 10 - - 19.8 1016.0 0.0
 
Date/Time
WST
Wind Sea
Height
m
Swell Vis
km
Cloud Weather Temp
°C
Press
MSL
hPa
Rain since
9am
mm
Dir  Spd
kts
Gust
kts
Height
m
Period
s
Dir
01/11:36pm NW 4 5 - - - - 10 - - 20.7 1016.2 0.0
01/11:30pm NNW 4 5 - - - - 10 - - 21.1 1016.2 0.0
01/11:17pm CALM 0 3 - - - - 4 - - 20.7 1016.4 0.0
01/11:00pm WNW 2 5 - - - - 10 - - 21.7 1016.4 0.0
01/10:47pm WNW 3 4 - - - - 10 - - 22.6 1016.4 0.0
01/10:30pm NW 1 3 - - - - 6 - - 21.7 1016.4 0.0
01/10:29pm NW 1 3 - - - - 6 - - 21.9 1016.4 0.0
01/10:00pm NW 4 5 - - - - 10 - - 21.9 1016.5 0.0
01/09:30pm NNW 1 4 - - - - 10 - - 22.6 1016.4 0.0
01/09:00pm NE 3 7 - - - - 10 - - 22.4 1016.5 0.0
01/08:30pm NNW 5 6 - - - - 10 - - 23.7 1016.4 0.0
01/08:00pm NW 5 7 - - - - 10 - - 24.1 1015.9 0.0
01/07:30pm WNW 6 8 - - - - 10 - - 24.1 1015.6 0.0
01/07:00pm NW 6 7 - - - - 10 - - 24.6 1015.4 0.0
01/06:30pm WNW 5 6 - - - - 10 - - 25.4 1015.2 0.0
01/06:00pm NW 7 10 - - - - 10 - - 26.1 1014.7 0.0
01/05:30pm WNW 5 8 - - - - 10 - - 27.1 1014.5 0.0
01/05:00pm WNW 8 12 - - - - 10 - - 27.4 1014.3 0.0
01/04:30pm WSW 9 14 - - - - 10 - - 30.9 1013.6 0.0
01/04:00pm W 9 13 - - - - 10 - - 30.7 1013.4 0.0
01/03:30pm W 9 12 - - - - 10 - - 31.8 1013.2 0.0
01/03:00pm W 10 14 - - - - 10 - - 32.6 1013.3 0.0
01/02:30pm WSW 9 14 - - - - 10 - - 33.7 1013.5 0.0
01/02:00pm WNW 9 15 - - - - 10 - - 33.5 1013.7 0.0
01/01:30pm WSW 10 12 - - - - 10 - - 34.0 1014.2 0.0
01/01:00pm W 7 11 - - - - 10 - - 34.4 1014.8 0.0
01/12:30pm SSW 5 8 - - - - 10 - - 34.4 1015.3 0.0
01/12:00pm S 5 7 - - - - 10 - - 33.8 1015.9 0.0
01/11:30am SSE 5 7 - - - - 10 - - 32.8 1016.3 0.0
01/11:00am SSE 5 6 - - - - 10 - - 31.2 1016.8 0.0
01/10:30am SSE 5 7 - - - - 10 - - 31.0 1017.3 0.0
01/10:00am SSE 5 7 - - - - 10 - - 29.5 1017.8 0.0
01/09:30am SSE 3 7 - - - - 10 - - 28.9 1018.1 0.0
01/09:00am SSE 4 6 - - - - 10 - - 28.5 1018.2 0.0
01/08:30am S 3 5 - - - - 10 - - 28.0 1018.2 0.0
01/08:00am W 3 5 - - - - 10 - - 26.3 1018.2 0.0
01/07:30am CALM 0 0 - - - - 10 - - 23.4 1018.2 0.0
01/07:00am CALM 0 0 - - - - 10 - - 20.3 1017.9 0.0
01/06:30am CALM 0 0 - - - - 10 - - 18.6 1017.8 0.0
01/06:00am NNW 1 3 - - - - 10 - - 18.0 1017.6 0.0
01/05:30am S 1 5 - - - - 10 - - 17.8 1017.5 0.0
01/05:00am S 1 4 - - - - 10 - - 21.4 1017.2 0.0
01/04:30am SE 6 9 - - - - 10 - - 23.0 1017.1 0.0
01/04:00am SSE 6 9 - - - - 10 - - 23.3 1016.7 0.0
01/03:30am CALM 0 0 - - - - 10 - - 20.5 1016.6 0.0
01/03:00am SSW 6 9 - - - - 10 - - 24.0 1016.4 0.0
01/02:30am SSW 6 7 - - - - 10 - - 23.2 1016.5 0.0
01/02:00am WSW 2 4 - - - - 10 - - 18.8 1016.7 0.0
01/01:30am CALM 0 0 - - - - 10 - - 19.2 1016.9 0.0
01/01:00am CALM 0 0 - - - - 10 - - 19.3 1017.2 0.0
01/12:30am CALM 0 0 - - - - 10 - - 19.4 1017.4 0.0
01/12:00am CALM 0 0 - - - - 10 - - 20.3 1017.8 0.0
 
Date/Time
WST
Wind Sea
Height
m
Swell Vis
km
Cloud Weather Temp
°C
Press
MSL
hPa
Rain since
9am
mm
Dir  Spd
kts
Gust
kts
Height
m
Period
s
Dir
31/11:30pm SW 3 4 - - - - 10 - - 20.3 1017.9 0.0
31/11:00pm CALM 0 0 - - - - 10 - - 19.2 1018.1 0.0
31/10:30pm CALM 0 0 - - - - 10 - - 19.7 1017.9 0.0
31/10:00pm CALM 0 0 - - - - 10 - - 21.2 1017.9 0.0
31/09:30pm NNW 5 6 - - - - 10 - - 21.0 1017.8 0.0
31/09:00pm CALM 0 0 - - - - 10 - - 20.5 1017.8 0.0
31/08:30pm CALM 0 0 - - - - 10 - - 21.4 1017.8 0.0
31/08:00pm NW 3 4 - - - - 10 - - 22.5 1017.7 0.0
31/07:30pm WSW 5 6 - - - - 10 - - 24.6 1017.3 0.0
31/07:00pm N 1 4 - - - - 10 - - 23.3 1017.0 0.0
31/06:30pm WNW 4 6 - - - - 10 - - 24.9 1016.5 0.0
31/06:00pm WNW 5 7 - - - - 10 - - 25.4 1016.1 0.0
31/05:30pm W 9 14 - - - - 10 - - 26.6 1015.7 0.0
31/05:00pm W 13 17 - - - - 10 - - 27.5 1015.4 0.0
31/04:30pm W 12 16 - - - - 10 - - 28.3 1015.3 0.0
31/04:00pm W 15 19 - - - - 10 - - 28.7 1015.0 0.0
31/03:30pm W 14 19 - - - - 10 - - 29.2 1014.9 0.0
31/03:00pm W 13 18 - - - - 10 - - 30.1 1014.9 0.0
31/02:30pm W 13 18 - - - - 10 - - 28.9 1015.1 0.0
31/02:00pm W 12 19 - - - - 10 - - 30.2 1015.2 0.0
31/01:30pm W 13 17 - - - - 10 - - 29.9 1015.6 0.0
31/01:00pm W 13 16 - - - - 10 - - 30.3 1016.0 0.0
31/12:30pm W 11 15 - - - - 10 - - 30.2 1016.4 0.0
31/12:00pm W 9 13 - - - - 10 - - 30.8 1016.8 0.0
31/11:30am W 8 11 - - - - 10 - - 31.3 1017.3 0.0
31/11:00am SSW 6 8 - - - - 10 - - 33.1 1017.7 0.0
31/10:30am S 5 7 - - - - 10 - - 31.4 1018.3 0.0
31/10:00am SE 6 8 - - - - 10 - - 29.2 1018.7 0.0
31/09:30am SE 5 8 - - - - 10 - - 28.0 1018.9 0.0
31/09:00am SE 6 9 - - - - 10 - - 26.7 1018.9 0.0
31/08:30am SE 6 8 - - - - 10 - - 26.0 1019.0 0.0
31/08:00am E 5 6 - - - - 10 - - 24.8 1019.0 0.0
31/07:30am E 6 8 - - - - 10 - - 23.0 1019.0 0.0
31/07:00am NE 3 5 - - - - 10 - - 20.6 1018.6 0.0
31/06:30am N 3 4 - - - - 10 - - 18.6 1017.9 0.0
31/06:00am CALM 0 0 - - - - 10 - - 18.2 1017.6 0.0
31/05:30am CALM 0 0 - - - - 10 - - 20.2 1017.3 0.0
31/05:00am S 4 6 - - - - 10 - - 22.9 1017.0 0.0
31/04:30am S 5 8 - - - - 10 - - 23.0 1016.9 0.0
31/04:00am S 6 10 - - - - 10 - - 23.0 1016.7 0.0
31/03:30am SSE 6 8 - - - - 10 - - 22.6 1016.7 0.0
31/03:00am SSE 7 9 - - - - 10 - - 22.9 1016.7 0.0
31/02:59am SSE 7 9 - - - - 10 - - 22.9 1016.7 0.0
31/02:31am CALM 0 0 - - - - 10 - - 17.9 1016.6 0.0
31/02:30am CALM 0 0 - - - - 10 - - 17.8 1016.6 0.0
31/02:15am CALM 0 0 - - - - 6 - - 18.0 1016.5 0.0
31/02:00am CALM 0 0 - - - - 10 - - 18.0 1016.5 0.0

Other formats

Comma delimited format used in spreadsheet applications
http://www.bom.gov.au/fwo/IDW60701/IDW60701.94203.axf

JavaScript Object Notation format (JSON) in row-major order
http://www.bom.gov.au/fwo/IDW60701/IDW60701.94203.json

Data quality

Most of these data are generated automatically and are frequently updated. Quality checks on data are not normally performed. It is possible for incorrect values to appear. Refer to information at About Latest Weather Observations and please check the disclaimer before using these data.